Santa Rita — DIOY2 — position and weather

sailwx.info

Track history (hours):
 
Tides and Currents Weather Stations Pressure Air Temp Water Temp Dewpoint Dewpoint Depression Visibility Wind Speed Wind Dir Waves Ship Positions

Santa Rita

Last reported at 2016-Jun-23 22:08 UTC. Time now 2016-Jul-23 09:20 UTC.
Position N 27°43' W 118°46'.
Warning: this ship's position is 29 days out of date.

Length 300 m; draft 12.7 m.

Type: Ship (hazmat cat A). MMSI: 218670000.

Date/timePositionNaut miles runAvg speedWind from/ knotsBaromVisibWave heightAir tempDewpointWater temp
2016-Jun-23 22:08N 27°43' W 118°46'1015.9
2016-Jun-23 21:30N 27°50' W 118°55'1716.0
2016-Jun-23 20:28N 28°00' W 119°10'1416.0
2016-Jun-23 19:33N 28°09' W 119°23'2216.0
2016-Jun-23 18:12N 28°23' W 119°42'1016.1
2016-Jun-23 17:33N 28°29' W 119°51'1616.1
2016-Jun-23 16:34N 28°39' W 120°05'2016.1
2016-Jun-23 15:21N 28°52' W 120°23'1416.0
2016-Jun-23 14:30N 29°00' W 120°35'1516.2
2016-Jun-23 13:33N 29°10' W 120°48'1716.0
2016-Jun-23 12:28N 29°21' W 121°04'1515.9
2016-Jun-23 11:33N 29°30' W 121°17'1615.8
2016-Jun-23 10:33N 29°40' W 121°31'1616.0
2016-Jun-23 09:33N 29°50' W 121°45'1616.0
2016-Jun-23 08:33N 29°60' W 121°60'1616.0
2016-Jun-23 07:34N 30°10' W 122°14'3216.1
2016-Jun-23 05:33N 30°30' W 122°43'1615.8
2016-Jun-23 04:34N 30°40' W 122°57'1615.6
2016-Jun-23 03:34N 30°50' W 123°11'1615.7
2016-Jun-23 02:34N 30°60' W 123°25'1615.6
2016-Jun-23 01:33N 31°10' W 123°40'1615.6
2016-Jun-23 00:33N 31°19' W 123°54'1615.5
2016-Jun-22 23:34N 31°29' W 124°08'1515.3
2016-Jun-22 22:33N 31°38' W 124°22'1515.2
2016-Jun-22 21:33N 31°48' W 124°36'1515.3
2016-Jun-22 20:33N 31°57' W 124°51'1515.2
2016-Jun-22 19:33N 32°07' W 125°05'1515.1
2016-Jun-22 18:33N 32°16' W 125°19'1715.0
2016-Jun-22 17:24N 32°26' W 125°35'1615.3
2016-Jun-22 16:22N 32°36' W 125°50'1215.5
2016-Jun-22 15:33N 32°44' W 126°02'1615.5
2016-Jun-22 14:33N 32°53' W 126°17'1615.6
2016-Jun-22 13:33N 33°03' W 126°31'1615.6
2016-Jun-22 12:33N 33°12' W 126°46'3815.5
2016-Jun-22 10:06N 33°35' W 127°23'915.6
2016-Jun-22 09:31N 33°40' W 127°32'1515.3
2016-Jun-22 08:31N 33°49' W 127°47'1715.3
2016-Jun-22 07:26N 33°59' W 128°03'1515.1
2016-Jun-22 06:26N 34°08' W 128°18'1315.0
2016-Jun-22 05:32N 34°16' W 128°31'1515.2
2016-Jun-22 04:33N 34°25' W 128°45'1615.2
2016-Jun-22 03:28N 34°34' W 129°02'1415.3
2016-Jun-22 02:33N 34°42' W 129°15'1515.4
2016-Jun-22 01:33N 34°51' W 129°31'1515.4
2016-Jun-22 00:33N 35°00' W 129°46'47215.4
2016-Jun-20 18:00N 39°12' W 138°06'18415.4 030 / 121033.927.0 0.517.611.916.0
2016-Jun-20 06:00N 40°42' W 141°36'16814.0 080 / 181030.610.8 2.516.5 14.0
2016-Jun-19 18:00N 42°00' W 144°54'   050 / 161027.3 5.4 2.014.513.212.0
Track history (hours):
 
Tides and Currents Weather Stations Pressure Air Temp Water Temp Dewpoint Dewpoint Depression Visibility Wind Speed Wind Dir Waves Ship Positions

Santa Rita

Last reported at 2016-Jun-23 22:08 UTC. Time now 2016-Jul-23 09:20 UTC.
Position N 27°43' W 118°46'.
Warning: this ship's position is 29 days out of date.

Length 300 m; draft 12.7 m.

Type: Ship (hazmat cat A). MMSI: 218670000.

Date/timePositionNaut miles runAvg speedWind from/ knotsBaromVisibWave heightAir tempDewpointWater temp
2016-Jun-23 22:08N 27°43' W 118°46'1015.9
2016-Jun-23 21:30N 27°50' W 118°55'1716.0
2016-Jun-23 20:28N 28°00' W 119°10'1416.0
2016-Jun-23 19:33N 28°09' W 119°23'2216.0
2016-Jun-23 18:12N 28°23' W 119°42'1016.1
2016-Jun-23 17:33N 28°29' W 119°51'1616.1
2016-Jun-23 16:34N 28°39' W 120°05'2016.1
2016-Jun-23 15:21N 28°52' W 120°23'1416.0
2016-Jun-23 14:30N 29°00' W 120°35'1516.2
2016-Jun-23 13:33N 29°10' W 120°48'1716.0
2016-Jun-23 12:28N 29°21' W 121°04'1515.9
2016-Jun-23 11:33N 29°30' W 121°17'1615.8
2016-Jun-23 10:33N 29°40' W 121°31'1616.0
2016-Jun-23 09:33N 29°50' W 121°45'1616.0
2016-Jun-23 08:33N 29°60' W 121°60'1616.0
2016-Jun-23 07:34N 30°10' W 122°14'3216.1
2016-Jun-23 05:33N 30°30' W 122°43'1615.8
2016-Jun-23 04:34N 30°40' W 122°57'1615.6
2016-Jun-23 03:34N 30°50' W 123°11'1615.7
2016-Jun-23 02:34N 30°60' W 123°25'1615.6
2016-Jun-23 01:33N 31°10' W 123°40'1615.6
2016-Jun-23 00:33N 31°19' W 123°54'1615.5
2016-Jun-22 23:34N 31°29' W 124°08'1515.3
2016-Jun-22 22:33N 31°38' W 124°22'1515.2
2016-Jun-22 21:33N 31°48' W 124°36'1515.3
2016-Jun-22 20:33N 31°57' W 124°51'1515.2
2016-Jun-22 19:33N 32°07' W 125°05'1515.1
2016-Jun-22 18:33N 32°16' W 125°19'1715.0
2016-Jun-22 17:24N 32°26' W 125°35'1615.3
2016-Jun-22 16:22N 32°36' W 125°50'1215.5
2016-Jun-22 15:33N 32°44' W 126°02'1615.5
2016-Jun-22 14:33N 32°53' W 126°17'1615.6
2016-Jun-22 13:33N 33°03' W 126°31'1615.6
2016-Jun-22 12:33N 33°12' W 126°46'3815.5
2016-Jun-22 10:06N 33°35' W 127°23'915.6
2016-Jun-22 09:31N 33°40' W 127°32'1515.3
2016-Jun-22 08:31N 33°49' W 127°47'1715.3
2016-Jun-22 07:26N 33°59' W 128°03'1515.1
2016-Jun-22 06:26N 34°08' W 128°18'1315.0
2016-Jun-22 05:32N 34°16' W 128°31'1515.2
2016-Jun-22 04:33N 34°25' W 128°45'1615.2
2016-Jun-22 03:28N 34°34' W 129°02'1415.3
2016-Jun-22 02:33N 34°42' W 129°15'1515.4
2016-Jun-22 01:33N 34°51' W 129°31'1515.4
2016-Jun-22 00:33N 35°00' W 129°46'47215.4
2016-Jun-20 18:00N 39°12' W 138°06'18415.4 030 / 121033.927.0 0.517.611.916.0
2016-Jun-20 06:00N 40°42' W 141°36'16814.0 080 / 181030.610.8 2.516.5 14.0
2016-Jun-19 18:00N 42°00' W 144°54'   050 / 161027.3 5.4 2.014.513.212.0

Dump ship's entire track history